Weather at Montreal / Laval (Artopex Plus) Heliport

Public forecast

Using degrees Celsius for public forecast. Weather courtesy of forecast.io.

Closest aviation weather report (METAR) to Montreal / Laval (Artopex Plus) Heliport

Closest report is Montreal / Pierre Elliott Trudeau International Airport, 6.5 nm (12.0 km) S. Retrieved 2020/10/21 00:00 UTC (59 minutes ago):

CYUL 210000Z 03009KT 15SM BKN033 08/04 A3037 RMK SC7 SLP286

Closest aviation forecast (TAF) to Montreal / Laval (Artopex Plus) Heliport

Closest forecast is Montreal / Pierre Elliott Trudeau International Airport, 6.5 nm (12.0 km) S. Retrieved 2020-10-21 00:42 UTC (17 minutes ago):

TAF CYUL 202339Z 2100/2124 04008KT P6SM BKN030 TEMPO 2100/2106 BKN020 FM210600 05010KT P6SM OVC020 TEMPO 2109/2111 P6SM -DZ BKN007 OVC012 FM211100 05012KT 5SM -DZ BR OVC006 FM211400 15012KT 4SM -RA BR OVC007 BECMG 2117/2119 20015G25KT FM212000 22015G30KT P6SM -SHRA OVC012 BECMG 2122/2124 25012G22KT RMK NXT FCST BY 210300Z